METAR Data
IDs: Format: Raw Decoded Include TAF

Data at: 2206 UTC 18 Sep 2018

METAR for:KORL (Orlando/Executive, FL, US)
Text:KORL 182153Z 24006KT 10SM VCTS CLR 34/21 A2989 RMK AO2 LTG DSNT NW SLP122 T03390206
Temperature: 33.9°C ( 93°F)
Dewpoint: 20.6°C ( 69°F) [RH = 46%]
Pressure (altimeter):29.89 inches Hg (1012.3 mb) [Sea level pressure: 1012.2 mb]
Winds:from the WSW (240 degrees) at 7 MPH (6 knots; 3.1 m/s)
Visibility:10 or more sm (16+ km)
Ceiling:at least 12,000 feet AGL
Clouds:sky clear below 12,000 feet AGL
Weather:VCTS (thunderstorm in vicinity)